createdAt,value
2022-10-23T00:01:02.418Z,98532.91
2022-10-23T00:03:31.558Z,98517.63
2022-10-23T00:05:59.370Z,98507.47
2022-10-23T00:08:27.214Z,98488.81
2022-10-23T00:10:55.017Z,98469.25
2022-10-23T00:13:22.866Z,98456.56
2022-10-23T00:18:23.762Z,98435.50
2022-10-23T00:20:52.868Z,98432.19
2022-10-23T00:23:20.663Z,98407.50
2022-10-23T00:25:48.541Z,98399.16
2022-10-23T00:28:16.332Z,98386.44
2022-10-23T00:30:44.301Z,98370.25
2022-10-23T00:33:12.173Z,98355.91
2022-10-23T00:35:40.417Z,98339.81
2022-10-23T00:38:10.203Z,98328.03
2022-10-23T00:40:38.864Z,98315.34
2022-10-23T00:43:17.266Z,98299.28
2022-10-23T00:45:45.235Z,98294.19
2022-10-23T00:48:13.561Z,98284.09
2022-10-23T00:50:41.633Z,98278.94
2022-10-23T00:53:12.942Z,98275.53
2022-10-23T00:55:46.642Z,98277.28
2022-10-23T00:58:14.830Z,98271.41
2022-10-23T01:00:45.790Z,98262.09
2022-10-23T01:03:14.891Z,98251.91
2022-10-23T01:08:30.307Z,98238.47
2022-10-23T01:11:05.244Z,98230.03
2022-10-23T01:13:42.691Z,98214.78
2022-10-23T01:16:17.796Z,98209.72
2022-10-23T01:18:50.227Z,98202.91
2022-10-23T01:21:25.041Z,98197.88
2022-10-23T01:24:11.260Z,98188.59
2022-10-23T01:26:56.262Z,98185.19
2022-10-23T01:29:34.579Z,98174.16
2022-10-23T01:32:08.413Z,98169.09
2022-10-23T01:34:46.483Z,98166.72
2022-10-23T01:37:21.029Z,98147.94
2022-10-23T01:39:52.972Z,98130.25
2022-10-23T01:42:25.755Z,98129.53
2022-10-23T01:45:01.138Z,98112.50
2022-10-23T01:47:40.660Z,98105.81
2022-10-23T01:50:14.335Z,98092.22
2022-10-23T01:52:45.415Z,98078.72
2022-10-23T01:55:14.487Z,98074.59
2022-10-23T01:57:45.534Z,98063.53
2022-10-23T02:00:18.066Z,98059.44
2022-10-23T02:02:53.906Z,98043.28
2022-10-23T02:05:28.420Z,98034.84
2022-10-23T02:07:58.115Z,98023.06
2022-10-23T02:10:32.122Z,98004.44
2022-10-23T02:13:05.243Z,97993.50
2022-10-23T02:15:40.508Z,97985.06
2022-10-23T02:18:15.223Z,97967.25
2022-10-23T02:20:45.661Z,97946.16
2022-10-23T02:23:20.350Z,97933.47
2022-10-23T02:25:54.614Z,97926.78
2022-10-23T02:28:27.576Z,97913.28
2022-10-23T02:31:01.547Z,97900.63
2022-10-23T02:33:32.916Z,97896.41
2022-10-23T02:36:00.947Z,97884.66
2022-10-23T02:38:41.233Z,97868.72
2022-10-23T02:41:25.341Z,97844.03
2022-10-23T02:44:04.932Z,97831.50
2022-10-23T02:46:46.276Z,97818.09
2022-10-23T02:49:20.171Z,97803.59
2022-10-23T02:51:59.044Z,97795.25
2022-10-23T02:54:36.905Z,97783.44
2022-10-23T02:57:14.790Z,97764.81
2022-10-23T02:59:46.407Z,97754.84
2022-10-23T03:02:22.929Z,97734.47
2022-10-23T03:04:52.841Z,97731.25
2022-10-23T03:07:21.992Z,97714.28
2022-10-23T03:09:49.987Z,97700.81
2022-10-23T03:12:17.762Z,97694.97
2022-10-23T03:14:45.641Z,97703.47
2022-10-23T03:17:13.453Z,97695.78
2022-10-23T03:19:42.669Z,97701.75
2022-10-23T03:22:10.494Z,97699.28
2022-10-23T03:24:38.357Z,97698.34
2022-10-23T03:27:06.116Z,97695.88
2022-10-23T03:29:33.991Z,97687.44
2022-10-23T03:32:01.781Z,97684.88
2022-10-23T03:34:29.622Z,97678.19
2022-10-23T03:36:58.701Z,97666.38
2022-10-23T03:39:26.611Z,97657.94
2022-10-23T03:41:54.454Z,97647.88
2022-10-23T03:44:22.376Z,97640.38
2022-10-23T03:46:50.225Z,97626.78
2022-10-23T03:49:18.050Z,97620.13
2022-10-23T03:51:52.078Z,97601.50
2022-10-23T03:54:24.873Z,97593.91
2022-10-23T03:56:56.505Z,97593.19
2022-10-23T03:59:25.439Z,97573.69
2022-10-23T04:01:53.878Z,97572.88
2022-10-23T04:04:21.843Z,97569.66
2022-10-23T04:06:49.589Z,97566.28
2022-10-23T04:09:17.918Z,97553.53
2022-10-23T04:11:47.155Z,97551.78
2022-10-23T04:14:15.574Z,97549.22
2022-10-23T04:16:43.759Z,97554.47
2022-10-23T04:19:11.725Z,97550.25
2022-10-23T04:21:39.557Z,97541.81
2022-10-23T04:24:07.934Z,97541.91
2022-10-23T04:26:35.942Z,97530.00
2022-10-23T04:29:05.066Z,97525.81
2022-10-23T04:31:32.953Z,97517.41
2022-10-23T04:34:00.746Z,97512.44
2022-10-23T04:36:31.051Z,97501.47
2022-10-23T04:39:05.626Z,97486.25
2022-10-23T04:41:33.664Z,97488.00
2022-10-23T04:44:01.635Z,97492.31
2022-10-23T04:46:30.903Z,97482.03
2022-10-23T04:48:58.799Z,97474.44
2022-10-23T04:51:44.924Z,97465.22
2022-10-23T04:54:37.126Z,97454.31
2022-10-23T04:57:43.598Z,97442.53
2022-10-23T05:00:15.611Z,97435.84
2022-10-23T05:02:54.321Z,97430.81
2022-10-23T05:05:22.895Z,97421.56
2022-10-23T05:08:17.140Z,97420.75
2022-10-23T05:11:04.915Z,97410.59
2022-10-23T05:13:37.547Z,97408.97
2022-10-23T05:16:05.879Z,97399.59
2022-10-23T05:18:39.193Z,97393.66
2022-10-23T05:21:11.125Z,97392.00
2022-10-23T05:23:43.238Z,97392.94
2022-10-23T05:26:11.356Z,97396.31
2022-10-23T05:28:40.225Z,97404.00
2022-10-23T05:31:10.175Z,97404.72
2022-10-23T05:33:42.531Z,97402.16
2022-10-23T05:36:10.930Z,97408.09
2022-10-23T05:38:38.919Z,97410.69
2022-10-23T05:41:13.840Z,97405.53
2022-10-23T05:43:41.991Z,97411.53
2022-10-23T05:46:42.237Z,97415.72
2022-10-23T05:49:27.599Z,97416.56
2022-10-23T05:52:31.179Z,97424.97
2022-10-23T05:55:30.512Z,97421.56
2022-10-23T05:58:16.486Z,97431.72
2022-10-23T06:01:00.473Z,97426.59
2022-10-23T06:03:51.163Z,97435.00
2022-10-23T06:06:23.072Z,97453.59
2022-10-23T06:08:51.417Z,97460.25
2022-10-23T06:11:22.080Z,97471.28
2022-10-23T06:14:00.770Z,97472.81
2022-10-23T06:16:28.725Z,97480.41
2022-10-23T06:18:57.502Z,97493.13
2022-10-23T06:21:27.079Z,97496.44
2022-10-23T06:24:19.899Z,97511.63
2022-10-23T06:26:55.548Z,97522.59
2022-10-23T06:29:34.950Z,97534.44
2022-10-23T06:32:02.775Z,97537.72
2022-10-23T06:34:30.744Z,97549.63
2022-10-23T06:37:00.019Z,97557.97
2022-10-23T06:39:36.788Z,97573.97
2022-10-23T06:42:33.564Z,97586.59
2022-10-23T06:45:21.623Z,97597.59
2022-10-23T06:47:51.133Z,97612.69
2022-10-23T06:50:38.225Z,97620.22
2022-10-23T06:53:13.387Z,97635.53
2022-10-23T06:55:50.066Z,97648.16
2022-10-23T06:58:21.111Z,97660.81
2022-10-23T07:01:16.272Z,97671.69
2022-10-23T07:03:45.626Z,97690.41
2022-10-23T07:06:14.000Z,97695.34
2022-10-23T07:08:43.459Z,97709.66
2022-10-23T07:11:34.012Z,97723.94
2022-10-23T07:14:03.076Z,97750.16
2022-10-23T07:16:32.060Z,97756.84
2022-10-23T07:19:01.257Z,97777.97
2022-10-23T07:21:30.715Z,97796.56
2022-10-23T07:24:13.938Z,97805.72
2022-10-23T07:26:42.507Z,97827.66
2022-10-23T07:29:11.464Z,97853.88
2022-10-23T07:31:39.278Z,97871.56
2022-10-23T07:34:41.948Z,97898.53
2022-10-23T07:37:36.158Z,97921.31
2022-10-23T07:40:08.252Z,97948.38
2022-10-23T07:42:43.047Z,97977.06
2022-10-23T07:45:12.780Z,97999.84
2022-10-23T07:47:45.324Z,98022.63
2022-10-23T07:50:14.564Z,98046.31
2022-10-23T07:52:42.678Z,98083.50
2022-10-23T07:55:19.023Z,98119.03
2022-10-23T07:57:50.879Z,98153.66
2022-10-23T08:00:36.121Z,98189.94
2022-10-23T08:03:13.930Z,98224.53
2022-10-23T08:05:42.932Z,98278.75
2022-10-23T08:08:10.771Z,98319.41
2022-10-23T08:10:42.617Z,98360.03
2022-10-23T08:13:14.681Z,98385.34
2022-10-23T08:15:58.508Z,98433.63
2022-10-23T08:18:45.355Z,98470.00
2022-10-23T08:21:13.557Z,98505.63
2022-10-23T08:23:41.535Z,98525.06
2022-10-23T08:26:11.288Z,98563.28
2022-10-23T08:28:39.779Z,98592.94
2022-10-23T08:31:09.726Z,98619.09
2022-10-23T08:33:37.925Z,98670.03
2022-10-23T08:36:06.681Z,98703.94
2022-10-23T08:38:36.140Z,98742.94
2022-10-23T08:41:07.603Z,98785.44
2022-10-23T08:44:10.845Z,98829.34
2022-10-23T08:46:47.430Z,98882.06
2022-10-23T08:49:44.124Z,98941.50
2022-10-23T08:52:20.363Z,98986.44
2022-10-23T08:54:58.293Z,99026.41
2022-10-23T08:57:33.462Z,99077.34
2022-10-23T09:00:06.870Z,99125.78
2022-10-23T09:02:39.602Z,99178.53
2022-10-23T09:05:15.211Z,99225.31
2022-10-23T09:07:57.133Z,99282.34
2022-10-23T09:10:48.064Z,99340.13
2022-10-23T09:13:53.866Z,99409.03
2022-10-23T09:16:37.777Z,99469.56
2022-10-23T09:19:19.117Z,99531.75
2022-10-23T09:21:50.360Z,99575.25
2022-10-23T09:24:20.273Z,99612.75
2022-10-23T09:26:49.952Z,99640.81
2022-10-23T09:29:24.542Z,99680.03
2022-10-23T09:31:55.782Z,99718.47
2022-10-23T09:34:25.751Z,99755.16
2022-10-23T09:39:31.281Z,99831.94
2022-10-23T09:42:02.341Z,99864.41
2022-10-23T09:44:31.575Z,99900.16
2022-10-23T09:47:11.289Z,99952.25
2022-10-23T09:49:41.825Z,99982.16
2022-10-23T09:52:25.132Z,100028.28
2022-10-23T09:54:57.113Z,100082.97
2022-10-23T09:57:29.613Z,100121.34
2022-10-23T09:59:58.194Z,100171.91
2022-10-23T10:02:30.688Z,100213.75
2022-10-23T10:05:25.046Z,100268.47
2022-10-23T10:07:59.896Z,100321.63
2022-10-23T10:10:32.553Z,100343.81
2022-10-23T10:13:04.780Z,100391.78
2022-10-23T10:15:38.548Z,100432.00
2022-10-23T10:18:16.141Z,100473.03
2022-10-23T10:21:10.262Z,100517.66
2022-10-23T10:23:46.626Z,100534.81
2022-10-23T10:29:12.578Z,100576.78
2022-10-23T10:31:53.224Z,100599.97
2022-10-23T10:34:30.237Z,100624.75
2022-10-23T10:37:03.861Z,100658.19
2022-10-23T10:39:42.982Z,100693.38
2022-10-23T10:42:47.406Z,100720.81
2022-10-23T10:45:27.003Z,100755.97
2022-10-23T10:48:16.023Z,100788.56
2022-10-23T10:51:08.639Z,100828.03
2022-10-23T10:53:58.566Z,100865.81
2022-10-23T10:56:30.390Z,100906.94
2022-10-23T10:59:02.738Z,100945.69
2022-10-23T11:01:36.219Z,100968.78
2022-10-23T11:04:12.268Z,100994.69
2022-10-23T11:06:44.564Z,100999.66
2022-10-23T11:09:20.768Z,101030.63
2022-10-23T11:11:49.977Z,101046.97
2022-10-23T11:14:18.693Z,101064.06
2022-10-23T11:16:49.048Z,101089.84
2022-10-23T11:19:26.363Z,101111.31
2022-10-23T11:22:00.669Z,101129.41
2022-10-23T11:25:04.615Z,101127.66
2022-10-23T11:27:54.086Z,101144.00
2022-10-23T11:30:28.965Z,101154.28
2022-10-23T11:33:23.620Z,101156.84
2022-10-23T11:36:02.011Z,101162.88
2022-10-23T11:38:34.298Z,101162.03
2022-10-23T11:41:05.428Z,101158.53
2022-10-23T11:43:36.920Z,101161.97
2022-10-23T11:46:15.531Z,101155.13
2022-10-23T11:48:44.775Z,101149.91
2022-10-23T11:51:28.573Z,101156.84
2022-10-23T11:54:27.086Z,101158.53
2022-10-23T11:57:09.153Z,101162.81
2022-10-23T11:59:53.843Z,101181.69
2022-10-23T12:02:31.921Z,101198.88
2022-10-23T12:05:04.340Z,101215.28
2022-10-23T12:07:34.247Z,101210.91
2022-10-23T12:10:05.638Z,101213.50
2022-10-23T12:12:35.255Z,101209.16
2022-10-23T12:15:22.625Z,101218.59
2022-10-23T12:17:52.197Z,101224.66
2022-10-23T12:20:36.316Z,101228.13
2022-10-23T12:23:21.900Z,101219.47
2022-10-23T12:26:07.699Z,101223.75
2022-10-23T12:28:41.875Z,101221.22
2022-10-23T12:31:25.228Z,101215.22
2022-10-23T12:34:03.259Z,101192.69
2022-10-23T12:36:49.466Z,101195.44
2022-10-23T12:39:27.830Z,101180.72
2022-10-23T12:41:58.027Z,101160.00
2022-10-23T12:44:27.043Z,101154.00
2022-10-23T12:46:59.300Z,101156.63
2022-10-23T12:49:31.435Z,101147.13
2022-10-23T12:52:25.517Z,101139.38
2022-10-23T12:54:53.433Z,101136.84
2022-10-23T12:57:26.092Z,101134.28
2022-10-23T12:59:57.480Z,101137.69
2022-10-23T13:02:28.366Z,101126.47
2022-10-23T13:04:59.203Z,101127.31
2022-10-23T13:07:30.057Z,101121.25
2022-10-23T13:10:01.786Z,101113.59
2022-10-23T13:12:41.625Z,101093.75
2022-10-23T13:15:18.678Z,101092.91
2022-10-23T13:17:49.043Z,101086.00
2022-10-23T13:20:27.334Z,101074.03
2022-10-23T13:23:00.947Z,101059.31
2022-10-23T13:25:33.239Z,101060.25
2022-10-23T13:28:25.160Z,101055.94
2022-10-23T13:31:25.944Z,101043.91
2022-10-23T13:34:08.169Z,101024.97
2022-10-23T13:36:39.415Z,101016.38
2022-10-23T13:39:15.513Z,100990.56
2022-10-23T13:41:48.681Z,100986.31
2022-10-23T13:44:21.662Z,100969.16
2022-10-23T13:46:54.484Z,100969.16
2022-10-23T13:49:22.411Z,100955.38
2022-10-23T13:51:54.902Z,100945.03
2022-10-23T13:54:24.705Z,100939.06
2022-10-23T13:56:55.073Z,100920.13
2022-10-23T13:59:25.051Z,100909.78
2022-10-23T14:01:53.065Z,100893.47
2022-10-23T14:04:21.401Z,100887.50
2022-10-23T14:06:49.515Z,100879.75
2022-10-23T14:09:19.497Z,100883.16
2022-10-23T14:11:47.780Z,100887.44
2022-10-23T14:14:15.786Z,100882.31
2022-10-23T14:16:44.918Z,100883.16
2022-10-23T14:19:12.825Z,100889.97
2022-10-23T14:21:40.796Z,100902.88
2022-10-23T14:24:09.894Z,100911.50
2022-10-23T14:26:38.065Z,100923.44
2022-10-23T14:29:09.821Z,100930.22
2022-10-23T14:31:39.407Z,100950.88
2022-10-23T14:34:08.559Z,100941.38
2022-10-23T14:36:49.353Z,100951.72
2022-10-23T14:39:19.052Z,100956.84
2022-10-23T14:41:46.855Z,100950.81
2022-10-23T14:44:15.040Z,100946.50
2022-10-23T14:46:42.908Z,100946.50
2022-10-23T14:49:12.051Z,100942.22
2022-10-23T14:51:39.891Z,100937.09
2022-10-23T14:54:09.224Z,100934.50
2022-10-23T14:56:39.432Z,100917.25
2022-10-23T14:59:08.143Z,100907.75
2022-10-23T15:01:43.507Z,100888.06
2022-10-23T15:04:15.586Z,100874.34
2022-10-23T15:06:43.874Z,100858.94
2022-10-23T15:09:11.683Z,100839.19
2022-10-23T15:11:39.567Z,100815.97
2022-10-23T15:14:07.724Z,100791.06
2022-10-23T15:16:41.129Z,100765.31
2022-10-23T15:19:13.512Z,100735.25
2022-10-23T15:21:46.792Z,100715.50
2022-10-23T15:24:14.653Z,100694.91
2022-10-23T15:26:43.253Z,100669.19
2022-10-23T15:29:12.156Z,100645.16
2022-10-23T15:31:45.777Z,100604.84
2022-10-23T15:34:16.013Z,100574.88
2022-10-23T15:36:44.861Z,100546.56
2022-10-23T15:39:15.667Z,100511.38
2022-10-23T15:41:44.011Z,100478.81
2022-10-23T15:44:15.135Z,100448.84
2022-10-23T15:46:43.046Z,100422.31
2022-10-23T15:49:10.984Z,100395.81
2022-10-23T15:51:39.943Z,100366.72
2022-10-23T15:54:09.395Z,100341.88
2022-10-23T15:56:38.641Z,100326.44
2022-10-23T15:59:06.446Z,100305.06
2022-10-23T16:04:28.488Z,100226.25
2022-10-23T16:06:56.463Z,100200.63
2022-10-23T16:09:24.293Z,100162.09
2022-10-23T16:11:53.464Z,100124.47
2022-10-23T16:14:21.289Z,100110.84
2022-10-23T16:16:49.114Z,100088.63
2022-10-23T16:19:17.048Z,100062.91
2022-10-23T16:21:44.960Z,100057.88
2022-10-23T16:24:12.928Z,100041.56
2022-10-23T16:26:41.258Z,100026.13
2022-10-23T16:29:10.907Z,100026.22
2022-10-23T16:31:38.876Z,100011.66
2022-10-23T16:34:07.314Z,100021.03
2022-10-23T16:36:38.841Z,100037.31
2022-10-23T16:39:25.977Z,100050.94
2022-10-23T16:42:12.624Z,100068.03
2022-10-23T16:45:01.792Z,100086.78
2022-10-23T16:47:31.932Z,100099.63
2022-10-23T16:49:59.792Z,100101.28
2022-10-23T16:52:28.613Z,100098.69
2022-10-23T16:54:56.541Z,100097.03
2022-10-23T16:57:24.415Z,100102.22
2022-10-23T16:59:52.287Z,100097.03
2022-10-23T17:02:21.547Z,100090.16
2022-10-23T17:04:49.419Z,100085.94
2022-10-23T17:07:17.503Z,100084.19
2022-10-23T17:09:46.530Z,100088.44
2022-10-23T17:12:14.662Z,100091.84
2022-10-23T17:14:42.594Z,100104.63
2022-10-23T17:17:10.898Z,100106.41
2022-10-23T17:19:46.085Z,100109.81
2022-10-23T17:22:14.884Z,100111.41
2022-10-23T17:24:46.190Z,100121.66
2022-10-23T17:27:16.674Z,100129.34
2022-10-23T17:29:44.881Z,100133.63
2022-10-23T17:32:12.700Z,100138.81
2022-10-23T17:34:41.973Z,100137.06
2022-10-23T17:37:10.229Z,100130.19
2022-10-23T17:39:38.017Z,100127.69
2022-10-23T17:42:05.943Z,100118.22
2022-10-23T17:44:33.873Z,100119.06
2022-10-23T17:47:01.726Z,100124.16
2022-10-23T17:49:29.606Z,100120.75
2022-10-23T17:51:59.197Z,100120.81
2022-10-23T17:54:28.363Z,100119.16
2022-10-23T17:56:56.592Z,100110.53
2022-10-23T17:59:24.550Z,100102.78
2022-10-23T18:01:52.557Z,100094.25
2022-10-23T18:04:21.557Z,100081.47
2022-10-23T18:06:52.367Z,100071.13
2022-10-23T18:09:22.718Z,100045.44
2022-10-23T18:11:50.744Z,100039.56
2022-10-23T18:14:20.566Z,100019.91
2022-10-23T18:16:48.856Z,100007.06
2022-10-23T18:19:18.728Z,100004.47
2022-10-23T18:21:47.233Z,100005.41
2022-10-23T18:24:16.851Z,99996.88
2022-10-23T18:26:47.911Z,99985.72
2022-10-23T18:29:17.389Z,99986.56
2022-10-23T18:31:48.066Z,99978.88
2022-10-23T18:34:18.874Z,99965.13
2022-10-23T18:36:47.280Z,99972.91
2022-10-23T18:39:18.085Z,99978.88
2022-10-23T18:41:47.594Z,99973.69
2022-10-23T18:44:18.362Z,99972.00
2022-10-23T18:46:46.647Z,99963.38
2022-10-23T18:49:14.797Z,99971.16
2022-10-23T18:51:42.821Z,99972.81
2022-10-23T18:54:13.788Z,99963.47
2022-10-23T18:56:42.067Z,99950.66
2022-10-23T18:59:14.881Z,99937.84
2022-10-23T19:01:43.456Z,99910.41
2022-10-23T19:04:14.054Z,99899.44
2022-10-23T19:06:41.994Z,99885.81
2022-10-23T19:09:11.344Z,99864.38
2022-10-23T19:11:40.396Z,99846.41
2022-10-23T19:14:08.503Z,99832.84
2022-10-23T19:16:41.337Z,99817.44
2022-10-23T19:19:15.750Z,99814.91
2022-10-23T19:21:44.674Z,99809.81
2022-10-23T19:24:16.389Z,99798.69
2022-10-23T19:26:45.173Z,99792.69
2022-10-23T19:29:16.380Z,99785.00
2022-10-23T19:31:49.174Z,99780.78
2022-10-23T19:34:19.877Z,99769.59
2022-10-23T19:36:48.077Z,99761.16
2022-10-23T19:39:16.137Z,99755.28
2022-10-23T19:41:44.161Z,99733.91
2022-10-23T19:44:12.453Z,99730.53
2022-10-23T19:46:40.262Z,99721.91
2022-10-23T19:49:09.885Z,99705.72
2022-10-23T19:51:38.129Z,99700.63
2022-10-23T19:54:06.937Z,99689.50
2022-10-23T19:56:34.859Z,99686.97
2022-10-23T19:59:02.791Z,99681.88
2022-10-23T20:01:30.817Z,99671.63
2022-10-23T20:03:58.852Z,99669.94
2022-10-23T20:06:30.065Z,99666.59
2022-10-23T20:08:58.301Z,99660.56
2022-10-23T20:11:29.467Z,99654.56
2022-10-23T20:13:58.462Z,99657.19
2022-10-23T20:16:28.377Z,99650.25
2022-10-23T20:18:56.797Z,99654.63
2022-10-23T20:21:25.755Z,99650.25
2022-10-23T20:23:55.032Z,99652.03
2022-10-23T20:26:22.904Z,99655.53
2022-10-23T20:28:54.294Z,99651.19
2022-10-23T20:31:24.532Z,99650.34
2022-10-23T20:33:53.060Z,99650.44
2022-10-23T20:36:28.251Z,99640.09
2022-10-23T20:38:59.026Z,99634.97
2022-10-23T20:41:28.888Z,99629.88
2022-10-23T20:43:57.263Z,99629.94
2022-10-23T20:46:25.175Z,99612.84
2022-10-23T20:48:53.764Z,99608.63
2022-10-23T20:51:23.355Z,99587.28
2022-10-23T20:53:52.118Z,99586.53
2022-10-23T20:56:29.812Z,99562.53
2022-10-23T20:58:57.955Z,99554.09
2022-10-23T21:01:26.406Z,99535.31
2022-10-23T21:03:57.059Z,99544.72
2022-10-23T21:06:26.270Z,99555.00
2022-10-23T21:08:56.182Z,99554.94
2022-10-23T21:11:26.221Z,99554.94
2022-10-23T21:13:56.848Z,99555.00
2022-10-23T21:16:28.669Z,99553.28
2022-10-23T21:18:57.819Z,99547.31
2022-10-23T21:21:26.841Z,99544.72
2022-10-23T21:23:56.664Z,99543.91
2022-10-23T21:26:26.642Z,99542.97
2022-10-23T21:29:06.627Z,99552.50
2022-10-23T21:31:43.295Z,99541.31
2022-10-23T21:37:10.889Z,99550.69
2022-10-23T21:39:34.321Z,99557.53
2022-10-23T21:42:03.539Z,99563.53
2022-10-23T21:44:31.354Z,99560.94
2022-10-23T21:46:59.222Z,99562.72
2022-10-23T21:49:26.973Z,99556.69
2022-10-23T21:51:55.142Z,99561.03
2022-10-23T21:54:23.698Z,99560.13
2022-10-23T21:56:53.431Z,99560.94
2022-10-23T21:59:25.885Z,99570.38
2022-10-23T22:01:55.824Z,99584.91
2022-10-23T22:06:34.675Z,99596.88
2022-10-23T22:09:02.537Z,99593.38
2022-10-23T22:11:30.555Z,99607.88
2022-10-23T22:13:59.684Z,99619.00
2022-10-23T22:16:28.159Z,99617.25
2022-10-23T22:18:56.231Z,99614.66
2022-10-23T22:21:25.613Z,99620.66
2022-10-23T22:23:57.615Z,99622.38
2022-10-23T22:26:29.444Z,99626.63
2022-10-23T22:28:58.873Z,99637.81
2022-10-23T22:31:29.629Z,99633.56
2022-10-23T22:33:58.023Z,99627.53
2022-10-23T22:36:26.807Z,99634.38
2022-10-23T22:38:56.790Z,99628.28
2022-10-23T22:41:24.988Z,99646.41
2022-10-23T22:43:56.448Z,99650.59
2022-10-23T22:46:26.102Z,99655.69
2022-10-23T22:48:54.331Z,99655.75
2022-10-23T22:51:24.183Z,99646.31
2022-10-23T22:53:52.032Z,99642.16
2022-10-23T22:56:22.944Z,99638.72
2022-10-23T22:58:51.665Z,99637.06
2022-10-23T23:01:23.281Z,99625.00
2022-10-23T23:03:52.396Z,99626.72
2022-10-23T23:06:21.679Z,99636.19
2022-10-23T23:08:50.578Z,99614.75
2022-10-23T23:11:19.784Z,99614.81
2022-10-23T23:13:50.118Z,99606.31
2022-10-23T23:16:21.197Z,99596.03
2022-10-23T23:18:49.158Z,99592.59
2022-10-23T23:21:17.788Z,99587.50
2022-10-23T23:23:46.100Z,99585.00
2022-10-23T23:26:14.889Z,99567.09
2022-10-23T23:28:42.995Z,99550.84
2022-10-23T23:31:14.727Z,99539.00
2022-10-23T23:33:42.608Z,99522.78
2022-10-23T23:36:13.172Z,99509.19
2022-10-23T23:38:41.104Z,99494.63
2022-10-23T23:41:13.357Z,99488.69
2022-10-23T23:43:41.608Z,99487.03
2022-10-23T23:46:09.703Z,99479.38
2022-10-23T23:48:39.652Z,99463.97
2022-10-23T23:51:07.804Z,99469.16
2022-10-23T23:53:35.685Z,99465.75
2022-10-23T23:56:03.412Z,99482.00
2022-10-23T23:58:31.337Z,99468.25
